sensor_id;sensor_type;location;lat;lon;timestamp;temperature;humidity
26599;DHT22;14240;51.064;16.612;2023-04-24T00:00:09;13.50;99.90
26599;DHT22;14240;51.064;16.612;2023-04-24T00:02:36;13.50;99.90
26599;DHT22;14240;51.064;16.612;2023-04-24T00:05:05;13.50;99.90
26599;DHT22;14240;51.064;16.612;2023-04-24T00:07:31;13.40;99.90
26599;DHT22;14240;51.064;16.612;2023-04-24T00:09:58;13.50;99.90
26599;DHT22;14240;51.064;16.612;2023-04-24T00:12:24;13.50;99.90
26599;DHT22;14240;51.064;16.612;2023-04-24T00:14:50;13.40;99.90
26599;DHT22;14240;51.064;16.612;2023-04-24T00:17:15;13.40;99.90
26599;DHT22;14240;51.064;16.612;2023-04-24T00:19:41;13.40;99.90
26599;DHT22;14240;51.064;16.612;2023-04-24T00:22:07;13.40;99.90
26599;DHT22;14240;51.064;16.612;2023-04-24T00:24:33;13.40;99.90
26599;DHT22;14240;51.064;16.612;2023-04-24T00:26:58;13.40;99.90
26599;DHT22;14240;51.064;16.612;2023-04-24T00:29:26;13.40;99.90
26599;DHT22;14240;51.064;16.612;2023-04-24T00:31:52;13.40;99.90
26599;DHT22;14240;51.064;16.612;2023-04-24T00:34:18;13.30;99.90
26599;DHT22;14240;51.064;16.612;2023-04-24T00:36:44;13.10;99.90
26599;DHT22;14240;51.064;16.612;2023-04-24T00:39:09;13.30;99.90
26599;DHT22;14240;51.064;16.612;2023-04-24T00:41:35;13.30;99.90
26599;DHT22;14240;51.064;16.612;2023-04-24T00:44:01;13.30;99.90
26599;DHT22;14240;51.064;16.612;2023-04-24T00:46:28;13.20;99.90
26599;DHT22;14240;51.064;16.612;2023-04-24T00:48:54;13.20;99.90
26599;DHT22;14240;51.064;16.612;2023-04-24T00:51:21;13.20;99.90
26599;DHT22;14240;51.064;16.612;2023-04-24T00:53:46;13.20;99.90
26599;DHT22;14240;51.064;16.612;2023-04-24T00:56:12;13.10;99.90
26599;DHT22;14240;51.064;16.612;2023-04-24T00:58:38;13.10;99.90
26599;DHT22;14240;51.064;16.612;2023-04-24T01:01:05;13.10;99.90
26599;DHT22;14240;51.064;16.612;2023-04-24T01:03:33;13.10;99.90
26599;DHT22;14240;51.064;16.612;2023-04-24T01:05:59;13.10;99.90
26599;DHT22;14240;51.064;16.612;2023-04-24T01:08:26;13.00;99.90
26599;DHT22;14240;51.064;16.612;2023-04-24T01:10:53;13.00;99.90
26599;DHT22;14240;51.064;16.612;2023-04-24T01:13:19;13.00;99.90
26599;DHT22;14240;51.064;16.612;2023-04-24T01:15:46;12.90;99.90
26599;DHT22;14240;51.064;16.612;2023-04-24T01:18:12;12.90;99.90
26599;DHT22;14240;51.064;16.612;2023-04-24T01:20:40;12.90;99.90
26599;DHT22;14240;51.064;16.612;2023-04-24T01:23:07;12.80;99.90
26599;DHT22;14240;51.064;16.612;2023-04-24T01:25:33;12.80;99.90
26599;DHT22;14240;51.064;16.612;2023-04-24T01:27:59;12.70;99.90
26599;DHT22;14240;51.064;16.612;2023-04-24T01:30:26;12.70;99.90
26599;DHT22;14240;51.064;16.612;2023-04-24T01:32:52;12.60;99.90
26599;DHT22;14240;51.064;16.612;2023-04-24T01:35:18;12.60;99.90
26599;DHT22;14240;51.064;16.612;2023-04-24T01:37:45;12.60;99.90
26599;DHT22;14240;51.064;16.612;2023-04-24T01:40:11;12.60;99.90
26599;DHT22;14240;51.064;16.612;2023-04-24T01:42:37;12.60;99.90
26599;DHT22;14240;51.064;16.612;2023-04-24T01:45:04;12.50;99.90
26599;DHT22;14240;51.064;16.612;2023-04-24T01:47:31;12.60;99.90
26599;DHT22;14240;51.064;16.612;2023-04-24T01:49:58;12.60;99.90
26599;DHT22;14240;51.064;16.612;2023-04-24T01:52:24;12.50;99.90
26599;DHT22;14240;51.064;16.612;2023-04-24T01:54:50;12.60;99.90
26599;DHT22;14240;51.064;16.612;2023-04-24T01:57:16;12.60;99.90
26599;DHT22;14240;51.064;16.612;2023-04-24T01:59:42;12.60;99.90
26599;DHT22;14240;51.064;16.612;2023-04-24T02:02:08;12.50;99.90
26599;DHT22;14240;51.064;16.612;2023-04-24T02:04:34;12.60;99.90
26599;DHT22;14240;51.064;16.612;2023-04-24T02:07:00;12.50;99.90
26599;DHT22;14240;51.064;16.612;2023-04-24T02:09:25;12.50;99.90
26599;DHT22;14240;51.064;16.612;2023-04-24T02:11:51;12.50;99.90
26599;DHT22;14240;51.064;16.612;2023-04-24T02:14:17;12.50;99.90
26599;DHT22;14240;51.064;16.612;2023-04-24T02:16:44;12.60;99.90
26599;DHT22;14240;51.064;16.612;2023-04-24T02:19:09;12.60;99.90
26599;DHT22;14240;51.064;16.612;2023-04-24T02:21:35;12.60;99.90
26599;DHT22;14240;51.064;16.612;2023-04-24T02:24:01;12.70;99.90
26599;DHT22;14240;51.064;16.612;2023-04-24T02:26:27;12.70;99.90
26599;DHT22;14240;51.064;16.612;2023-04-24T02:28:53;12.70;99.90
26599;DHT22;14240;51.064;16.612;2023-04-24T02:31:18;12.80;99.90
26599;DHT22;14240;51.064;16.612;2023-04-24T02:33:44;12.80;99.90
26599;DHT22;14240;51.064;16.612;2023-04-24T02:36:10;12.80;99.90
26599;DHT22;14240;51.064;16.612;2023-04-24T02:38:35;12.80;99.90
26599;DHT22;14240;51.064;16.612;2023-04-24T02:41:01;12.80;99.90
26599;DHT22;14240;51.064;16.612;2023-04-24T02:43:28;12.80;99.90
26599;DHT22;14240;51.064;16.612;2023-04-24T02:45:54;12.80;99.90
26599;DHT22;14240;51.064;16.612;2023-04-24T02:48:19;12.80;99.90
26599;DHT22;14240;51.064;16.612;2023-04-24T02:50:46;12.70;99.90
26599;DHT22;14240;51.064;16.612;2023-04-24T02:53:14;12.70;99.90
26599;DHT22;14240;51.064;16.612;2023-04-24T02:55:40;12.70;99.90
26599;DHT22;14240;51.064;16.612;2023-04-24T02:58:05;12.70;99.90
26599;DHT22;14240;51.064;16.612;2023-04-24T03:00:31;12.70;99.90
26599;DHT22;14240;51.064;16.612;2023-04-24T03:02:57;12.70;99.90
26599;DHT22;14240;51.064;16.612;2023-04-24T03:05:23;12.80;99.90
26599;DHT22;14240;51.064;16.612;2023-04-24T03:07:49;12.80;99.90
26599;DHT22;14240;51.064;16.612;2023-04-24T03:10:15;12.70;99.90
26599;DHT22;14240;51.064;16.612;2023-04-24T03:12:41;12.70;99.90
26599;DHT22;14240;51.064;16.612;2023-04-24T03:15:07;12.60;99.90
26599;DHT22;14240;51.064;16.612;2023-04-24T03:17:36;12.60;99.90
26599;DHT22;14240;51.064;16.612;2023-04-24T03:20:03;12.60;99.90
26599;DHT22;14240;51.064;16.612;2023-04-24T03:22:30;12.60;99.90
26599;DHT22;14240;51.064;16.612;2023-04-24T03:24:58;12.50;99.90
26599;DHT22;14240;51.064;16.612;2023-04-24T03:27:23;12.60;99.90
26599;DHT22;14240;51.064;16.612;2023-04-24T03:29:49;12.70;99.90
26599;DHT22;14240;51.064;16.612;2023-04-24T03:32:19;12.70;99.90
26599;DHT22;14240;51.064;16.612;2023-04-24T03:34:45;12.70;99.90
26599;DHT22;14240;51.064;16.612;2023-04-24T03:37:11;12.70;99.90
26599;DHT22;14240;51.064;16.612;2023-04-24T03:39:41;12.80;99.90
26599;DHT22;14240;51.064;16.612;2023-04-24T03:42:12;12.80;99.90
26599;DHT22;14240;51.064;16.612;2023-04-24T03:44:38;12.80;99.90
26599;DHT22;14240;51.064;16.612;2023-04-24T03:47:03;12.90;99.90
26599;DHT22;14240;51.064;16.612;2023-04-24T03:49:29;12.90;99.90
26599;DHT22;14240;51.064;16.612;2023-04-24T03:51:55;13.00;99.90
26599;DHT22;14240;51.064;16.612;2023-04-24T03:54:21;13.00;99.90
26599;DHT22;14240;51.064;16.612;2023-04-24T03:56:46;13.00;99.90
26599;DHT22;14240;51.064;16.612;2023-04-24T03:59:12;13.10;99.90
26599;DHT22;14240;51.064;16.612;2023-04-24T04:01:42;13.10;99.90
26599;DHT22;14240;51.064;16.612;2023-04-24T04:04:08;13.20;99.90
26599;DHT22;14240;51.064;16.612;2023-04-24T04:06:34;13.20;99.90
26599;DHT22;14240;51.064;16.612;2023-04-24T04:09:01;13.20;99.90
26599;DHT22;14240;51.064;16.612;2023-04-24T04:11:29;13.30;99.90
26599;DHT22;14240;51.064;16.612;2023-04-24T04:13:55;13.40;99.90
26599;DHT22;14240;51.064;16.612;2023-04-24T04:16:22;13.40;99.90
26599;DHT22;14240;51.064;16.612;2023-04-24T04:18:48;13.40;99.90
26599;DHT22;14240;51.064;16.612;2023-04-24T04:21:14;13.50;99.90
26599;DHT22;14240;51.064;16.612;2023-04-24T04:23:39;13.60;99.90
26599;DHT22;14240;51.064;16.612;2023-04-24T04:26:05;13.70;99.90
26599;DHT22;14240;51.064;16.612;2023-04-24T04:28:31;13.80;99.90
26599;DHT22;14240;51.064;16.612;2023-04-24T04:30:58;13.80;99.90
26599;DHT22;14240;51.064;16.612;2023-04-24T04:33:24;13.90;99.90
26599;DHT22;14240;51.064;16.612;2023-04-24T04:35:50;13.90;99.90
26599;DHT22;14240;51.064;16.612;2023-04-24T04:38:19;14.00;99.90
26599;DHT22;14240;51.064;16.612;2023-04-24T04:40:45;14.10;99.90
26599;DHT22;14240;51.064;16.612;2023-04-24T04:43:11;14.10;99.90
26599;DHT22;14240;51.064;16.612;2023-04-24T04:45:39;14.20;99.90
26599;DHT22;14240;51.064;16.612;2023-04-24T04:48:06;14.30;99.90
26599;DHT22;14240;51.064;16.612;2023-04-24T04:50:37;14.40;99.90
26599;DHT22;14240;51.064;16.612;2023-04-24T04:53:04;14.40;99.90
26599;DHT22;14240;51.064;16.612;2023-04-24T04:55:29;14.50;99.90
26599;DHT22;14240;51.064;16.612;2023-04-24T04:57:55;14.60;99.90
26599;DHT22;14240;51.064;16.612;2023-04-24T05:00:22;14.70;99.90
26599;DHT22;14240;51.064;16.612;2023-04-24T05:02:50;14.90;99.90
26599;DHT22;14240;51.064;16.612;2023-04-24T05:05:16;15.10;99.90
26599;DHT22;14240;51.064;16.612;2023-04-24T05:07:43;15.30;99.90
26599;DHT22;14240;51.064;16.612;2023-04-24T05:10:09;15.50;99.90
26599;DHT22;14240;51.064;16.612;2023-04-24T05:12:36;15.70;99.90
26599;DHT22;14240;51.064;16.612;2023-04-24T05:15:01;15.90;99.90
26599;DHT22;14240;51.064;16.612;2023-04-24T05:17:28;16.10;99.90
26599;DHT22;14240;51.064;16.612;2023-04-24T05:19:54;16.30;99.90
26599;DHT22;14240;51.064;16.612;2023-04-24T05:22:20;16.50;99.90
26599;DHT22;14240;51.064;16.612;2023-04-24T05:24:46;16.60;99.90
26599;DHT22;14240;51.064;16.612;2023-04-24T05:27:12;16.60;99.90
26599;DHT22;14240;51.064;16.612;2023-04-24T05:29:38;16.50;99.90
26599;DHT22;14240;51.064;16.612;2023-04-24T05:32:04;16.40;99.90
26599;DHT22;14240;51.064;16.612;2023-04-24T05:34:29;16.40;99.90
26599;DHT22;14240;51.064;16.612;2023-04-24T05:36:55;16.30;99.90
26599;DHT22;14240;51.064;16.612;2023-04-24T05:39:21;16.20;99.90
26599;DHT22;14240;51.064;16.612;2023-04-24T05:41:47;16.20;99.90
26599;DHT22;14240;51.064;16.612;2023-04-24T05:44:13;16.10;99.90
26599;DHT22;14240;51.064;16.612;2023-04-24T05:46:38;16.10;99.90
26599;DHT22;14240;51.064;16.612;2023-04-24T05:49:04;16.00;99.90
26599;DHT22;14240;51.064;16.612;2023-04-24T05:51:30;16.00;99.90
26599;DHT22;14240;51.064;16.612;2023-04-24T05:53:57;16.00;99.90
26599;DHT22;14240;51.064;16.612;2023-04-24T05:56:23;16.00;99.90
26599;DHT22;14240;51.064;16.612;2023-04-24T05:58:49;15.90;99.90
26599;DHT22;14240;51.064;16.612;2023-04-24T06:01:14;16.00;99.90
26599;DHT22;14240;51.064;16.612;2023-04-24T06:03:41;16.00;99.90
26599;DHT22;14240;51.064;16.612;2023-04-24T06:06:07;16.00;99.90
26599;DHT22;14240;51.064;16.612;2023-04-24T06:08:34;16.00;99.90
26599;DHT22;14240;51.064;16.612;2023-04-24T06:11:00;16.00;99.90
26599;DHT22;14240;51.064;16.612;2023-04-24T06:13:26;16.00;99.90
26599;DHT22;14240;51.064;16.612;2023-04-24T06:15:53;16.10;99.90
26599;DHT22;14240;51.064;16.612;2023-04-24T06:18:20;16.10;99.90
26599;DHT22;14240;51.064;16.612;2023-04-24T06:20:47;16.20;99.90
26599;DHT22;14240;51.064;16.612;2023-04-24T06:23:12;16.20;99.90
26599;DHT22;14240;51.064;16.612;2023-04-24T06:25:38;16.20;99.90
26599;DHT22;14240;51.064;16.612;2023-04-24T06:28:05;16.20;99.90
26599;DHT22;14240;51.064;16.612;2023-04-24T06:30:31;16.10;99.90
26599;DHT22;14240;51.064;16.612;2023-04-24T06:32:57;16.10;99.90
26599;DHT22;14240;51.064;16.612;2023-04-24T06:35:23;16.10;99.90
26599;DHT22;14240;51.064;16.612;2023-04-24T06:37:48;16.10;99.90
26599;DHT22;14240;51.064;16.612;2023-04-24T06:40:14;16.10;99.90
26599;DHT22;14240;51.064;16.612;2023-04-24T06:42:42;16.00;99.90
26599;DHT22;14240;51.064;16.612;2023-04-24T06:45:13;16.00;99.90
26599;DHT22;14240;51.064;16.612;2023-04-24T06:47:38;16.00;99.90
26599;DHT22;14240;51.064;16.612;2023-04-24T06:50:05;16.00;99.90
26599;DHT22;14240;51.064;16.612;2023-04-24T06:52:31;16.00;99.90
26599;DHT22;14240;51.064;16.612;2023-04-24T06:55:03;16.10;99.90
26599;DHT22;14240;51.064;16.612;2023-04-24T06:57:29;16.00;99.90
26599;DHT22;14240;51.064;16.612;2023-04-24T06:59:55;16.00;99.90
26599;DHT22;14240;51.064;16.612;2023-04-24T07:02:21;16.00;99.90
26599;DHT22;14240;51.064;16.612;2023-04-24T07:04:47;16.00;99.90
26599;DHT22;14240;51.064;16.612;2023-04-24T07:07:13;16.00;99.90
26599;DHT22;14240;51.064;16.612;2023-04-24T07:09:40;15.90;99.90
26599;DHT22;14240;51.064;16.612;2023-04-24T07:12:11;15.90;99.90
26599;DHT22;14240;51.064;16.612;2023-04-24T07:14:37;15.90;99.90
26599;DHT22;14240;51.064;16.612;2023-04-24T07:17:04;15.90;99.90
26599;DHT22;14240;51.064;16.612;2023-04-24T07:19:30;15.90;99.90
26599;DHT22;14240;51.064;16.612;2023-04-24T07:21:57;15.90;99.90
26599;DHT22;14240;51.064;16.612;2023-04-24T07:24:24;15.90;99.90
26599;DHT22;14240;51.064;16.612;2023-04-24T07:26:51;15.90;99.90
26599;DHT22;14240;51.064;16.612;2023-04-24T07:29:18;15.90;99.90
26599;DHT22;14240;51.064;16.612;2023-04-24T07:31:44;15.90;99.90
26599;DHT22;14240;51.064;16.612;2023-04-24T07:34:09;15.90;99.90
26599;DHT22;14240;51.064;16.612;2023-04-24T07:36:35;15.90;99.90
26599;DHT22;14240;51.064;16.612;2023-04-24T07:39:04;15.90;99.90
26599;DHT22;14240;51.064;16.612;2023-04-24T07:41:29;15.90;99.90
26599;DHT22;14240;51.064;16.612;2023-04-24T07:43:55;16.00;99.90
26599;DHT22;14240;51.064;16.612;2023-04-24T07:46:21;16.00;99.90
26599;DHT22;14240;51.064;16.612;2023-04-24T07:48:48;16.00;99.90
26599;DHT22;14240;51.064;16.612;2023-04-24T07:51:14;16.20;99.90
26599;DHT22;14240;51.064;16.612;2023-04-24T07:53:41;16.60;99.90
26599;DHT22;14240;51.064;16.612;2023-04-24T07:56:07;17.10;99.90
26599;DHT22;14240;51.064;16.612;2023-04-24T07:58:33;17.50;99.90
26599;DHT22;14240;51.064;16.612;2023-04-24T08:00:59;17.80;99.90
26599;DHT22;14240;51.064;16.612;2023-04-24T08:03:25;17.90;99.90
26599;DHT22;14240;51.064;16.612;2023-04-24T08:05:50;18.00;99.90
26599;DHT22;14240;51.064;16.612;2023-04-24T08:08:17;18.10;99.90
26599;DHT22;14240;51.064;16.612;2023-04-24T08:10:43;18.20;99.90
26599;DHT22;14240;51.064;16.612;2023-04-24T08:13:09;18.20;99.90
26599;DHT22;14240;51.064;16.612;2023-04-24T08:15:36;18.20;99.90
26599;DHT22;14240;51.064;16.612;2023-04-24T08:18:02;18.20;99.90
26599;DHT22;14240;51.064;16.612;2023-04-24T08:20:28;18.30;99.90
26599;DHT22;14240;51.064;16.612;2023-04-24T08:22:54;18.60;99.90
26599;DHT22;14240;51.064;16.612;2023-04-24T08:25:21;19.00;99.90
26599;DHT22;14240;51.064;16.612;2023-04-24T08:27:48;18.90;99.90
26599;DHT22;14240;51.064;16.612;2023-04-24T08:30:14;18.80;99.90
26599;DHT22;14240;51.064;16.612;2023-04-24T08:32:40;18.90;99.90
26599;DHT22;14240;51.064;16.612;2023-04-24T08:35:07;19.20;99.90
26599;DHT22;14240;51.064;16.612;2023-04-24T08:37:37;19.40;99.90
26599;DHT22;14240;51.064;16.612;2023-04-24T08:40:27;19.70;99.90
26599;DHT22;14240;51.064;16.612;2023-04-24T08:42:55;20.10;99.90
26599;DHT22;14240;51.064;16.612;2023-04-24T08:45:23;20.30;99.90
26599;DHT22;14240;51.064;16.612;2023-04-24T08:47:50;20.40;99.90
26599;DHT22;14240;51.064;16.612;2023-04-24T08:50:17;20.30;99.90
26599;DHT22;14240;51.064;16.612;2023-04-24T08:52:43;20.20;99.90
26599;DHT22;14240;51.064;16.612;2023-04-24T08:55:09;20.10;99.90
26599;DHT22;14240;51.064;16.612;2023-04-24T08:57:35;20.00;99.90
26599;DHT22;14240;51.064;16.612;2023-04-24T09:00:04;19.90;99.90
26599;DHT22;14240;51.064;16.612;2023-04-24T09:02:31;19.80;99.90
26599;DHT22;14240;51.064;16.612;2023-04-24T09:04:57;19.80;99.90
26599;DHT22;14240;51.064;16.612;2023-04-24T09:07:25;19.70;99.90
26599;DHT22;14240;51.064;16.612;2023-04-24T09:09:53;19.70;99.90
26599;DHT22;14240;51.064;16.612;2023-04-24T09:12:19;19.80;99.90
26599;DHT22;14240;51.064;16.612;2023-04-24T09:14:46;19.80;99.90
26599;DHT22;14240;51.064;16.612;2023-04-24T09:17:13;19.80;99.90
26599;DHT22;14240;51.064;16.612;2023-04-24T09:19:39;19.80;99.90
26599;DHT22;14240;51.064;16.612;2023-04-24T09:22:07;19.90;99.90
26599;DHT22;14240;51.064;16.612;2023-04-24T09:24:35;19.90;99.90
26599;DHT22;14240;51.064;16.612;2023-04-24T09:27:01;19.90;99.90
26599;DHT22;14240;51.064;16.612;2023-04-24T09:29:28;19.90;99.90
26599;DHT22;14240;51.064;16.612;2023-04-24T09:31:54;19.90;99.90
26599;DHT22;14240;51.064;16.612;2023-04-24T09:34:24;19.90;99.90
26599;DHT22;14240;51.064;16.612;2023-04-24T09:36:51;19.90;99.90
26599;DHT22;14240;51.064;16.612;2023-04-24T09:39:18;19.90;99.90
26599;DHT22;14240;51.064;16.612;2023-04-24T09:41:56;19.90;99.90
26599;DHT22;14240;51.064;16.612;2023-04-24T09:44:26;20.00;99.90
26599;DHT22;14240;51.064;16.612;2023-04-24T09:46:55;20.00;99.90
26599;DHT22;14240;51.064;16.612;2023-04-24T09:49:25;20.00;99.90
26599;DHT22;14240;51.064;16.612;2023-04-24T09:51:52;19.90;99.90
26599;DHT22;14240;51.064;16.612;2023-04-24T09:54:20;19.80;99.90
26599;DHT22;14240;51.064;16.612;2023-04-24T09:56:50;19.80;99.90
26599;DHT22;14240;51.064;16.612;2023-04-24T09:59:18;19.60;99.90
26599;DHT22;14240;51.064;16.612;2023-04-24T10:01:46;19.50;99.90
26599;DHT22;14240;51.064;16.612;2023-04-24T10:04:21;19.40;99.90
26599;DHT22;14240;51.064;16.612;2023-04-24T10:06:49;19.30;99.90
26599;DHT22;14240;51.064;16.612;2023-04-24T10:09:16;19.10;99.90
26599;DHT22;14240;51.064;16.612;2023-04-24T10:11:44;19.00;99.90
26599;DHT22;14240;51.064;16.612;2023-04-24T10:14:12;18.90;99.90
26599;DHT22;14240;51.064;16.612;2023-04-24T10:16:39;18.80;99.90
26599;DHT22;14240;51.064;16.612;2023-04-24T10:19:06;18.70;99.90
26599;DHT22;14240;51.064;16.612;2023-04-24T10:21:32;18.70;99.90
26599;DHT22;14240;51.064;16.612;2023-04-24T10:23:59;18.50;99.90
26599;DHT22;14240;51.064;16.612;2023-04-24T10:26:29;18.50;99.90
26599;DHT22;14240;51.064;16.612;2023-04-24T10:28:58;18.30;99.90
26599;DHT22;14240;51.064;16.612;2023-04-24T10:31:24;18.20;99.90
26599;DHT22;14240;51.064;16.612;2023-04-24T10:33:51;18.10;99.90
26599;DHT22;14240;51.064;16.612;2023-04-24T10:36:18;18.10;99.90
26599;DHT22;14240;51.064;16.612;2023-04-24T10:38:45;18.00;99.90
26599;DHT22;14240;51.064;16.612;2023-04-24T10:41:13;17.90;99.90
26599;DHT22;14240;51.064;16.612;2023-04-24T10:43:45;17.80;99.90
26599;DHT22;14240;51.064;16.612;2023-04-24T10:46:19;17.70;99.90
26599;DHT22;14240;51.064;16.612;2023-04-24T10:48:52;17.70;99.90
26599;DHT22;14240;51.064;16.612;2023-04-24T10:51:42;17.60;99.90
26599;DHT22;14240;51.064;16.612;2023-04-24T10:56:53;17.50;99.90
26599;DHT22;14240;51.064;16.612;2023-04-24T10:59:26;17.50;99.90
26599;DHT22;14240;51.064;16.612;2023-04-24T11:01:54;17.50;99.90
26599;DHT22;14240;51.064;16.612;2023-04-24T11:04:31;17.50;99.90
26599;DHT22;14240;51.064;16.612;2023-04-24T11:06:57;17.50;99.90
26599;DHT22;14240;51.064;16.612;2023-04-24T11:09:26;17.40;99.90
26599;DHT22;14240;51.064;16.612;2023-04-24T11:12:06;17.40;99.90
26599;DHT22;14240;51.064;16.612;2023-04-24T11:17:38;17.30;99.90
26599;DHT22;14240;51.064;16.612;2023-04-24T11:20:16;17.20;99.90
26599;DHT22;14240;51.064;16.612;2023-04-24T11:22:42;17.20;99.90
26599;DHT22;14240;51.064;16.612;2023-04-24T11:25:09;17.20;99.90
26599;DHT22;14240;51.064;16.612;2023-04-24T11:27:44;17.10;99.90
26599;DHT22;14240;51.064;16.612;2023-04-24T11:30:19;17.00;99.90
26599;DHT22;14240;51.064;16.612;2023-04-24T11:32:48;17.00;99.90
26599;DHT22;14240;51.064;16.612;2023-04-24T11:35:22;16.50;99.90
26599;DHT22;14240;51.064;16.612;2023-04-24T11:37:54;16.80;99.90
26599;DHT22;14240;51.064;16.612;2023-04-24T11:40:21;16.80;99.90
26599;DHT22;14240;51.064;16.612;2023-04-24T11:42:52;16.80;99.90
26599;DHT22;14240;51.064;16.612;2023-04-24T11:45:20;16.70;99.90
26599;DHT22;14240;51.064;16.612;2023-04-24T11:47:46;16.60;99.90
26599;DHT22;14240;51.064;16.612;2023-04-24T11:50:14;16.50;99.90
26599;DHT22;14240;51.064;16.612;2023-04-24T11:52:43;16.50;99.90
26599;DHT22;14240;51.064;16.612;2023-04-24T11:57:45;16.20;99.90
26599;DHT22;14240;51.064;16.612;2023-04-24T12:00:23;16.10;99.90
26599;DHT22;14240;51.064;16.612;2023-04-24T12:02:49;16.10;99.90
26599;DHT22;14240;51.064;16.612;2023-04-24T12:05:26;16.00;99.90
26599;DHT22;14240;51.064;16.612;2023-04-24T12:07:52;15.90;99.90
26599;DHT22;14240;51.064;16.612;2023-04-24T12:10:26;15.80;99.90
26599;DHT22;14240;51.064;16.612;2023-04-24T12:12:52;15.70;99.90
26599;DHT22;14240;51.064;16.612;2023-04-24T12:15:21;15.60;99.90
26599;DHT22;14240;51.064;16.612;2023-04-24T12:17:48;15.60;99.90
26599;DHT22;14240;51.064;16.612;2023-04-24T12:20:15;15.50;99.90
26599;DHT22;14240;51.064;16.612;2023-04-24T12:22:53;15.40;99.90
26599;DHT22;14240;51.064;16.612;2023-04-24T12:25:21;15.30;99.90
26599;DHT22;14240;51.064;16.612;2023-04-24T12:27:53;15.30;99.90
26599;DHT22;14240;51.064;16.612;2023-04-24T12:30:19;15.20;99.90
26599;DHT22;14240;51.064;16.612;2023-04-24T12:32:47;15.20;99.90
26599;DHT22;14240;51.064;16.612;2023-04-24T12:35:18;15.10;99.90
26599;DHT22;14240;51.064;16.612;2023-04-24T12:37:45;15.00;99.90
26599;DHT22;14240;51.064;16.612;2023-04-24T12:40:12;14.90;99.90
26599;DHT22;14240;51.064;16.612;2023-04-24T12:42:53;14.90;99.90
26599;DHT22;14240;51.064;16.612;2023-04-24T12:45:19;14.80;99.90
26599;DHT22;14240;51.064;16.612;2023-04-24T12:47:45;14.80;99.90
26599;DHT22;14240;51.064;16.612;2023-04-24T12:50:15;14.80;99.90
26599;DHT22;14240;51.064;16.612;2023-04-24T12:52:41;14.80;99.90
26599;DHT22;14240;51.064;16.612;2023-04-24T12:55:07;14.80;99.90
26599;DHT22;14240;51.064;16.612;2023-04-24T12:57:35;14.80;99.90
26599;DHT22;14240;51.064;16.612;2023-04-24T13:00:01;14.80;99.90
26599;DHT22;14240;51.064;16.612;2023-04-24T13:02:28;14.80;99.90
26599;DHT22;14240;51.064;16.612;2023-04-24T13:04:55;14.80;99.90
26599;DHT22;14240;51.064;16.612;2023-04-24T13:07:21;14.80;99.90
26599;DHT22;14240;51.064;16.612;2023-04-24T13:09:48;14.80;99.90
26599;DHT22;14240;51.064;16.612;2023-04-24T13:12:14;14.80;99.90
26599;DHT22;14240;51.064;16.612;2023-04-24T13:14:41;14.80;99.90
26599;DHT22;14240;51.064;16.612;2023-04-24T13:17:06;14.80;99.90
26599;DHT22;14240;51.064;16.612;2023-04-24T13:19:53;14.80;99.90
26599;DHT22;14240;51.064;16.612;2023-04-24T13:22:19;14.80;99.90
26599;DHT22;14240;51.064;16.612;2023-04-24T13:24:45;14.80;99.90
26599;DHT22;14240;51.064;16.612;2023-04-24T13:27:11;14.80;99.90
26599;DHT22;14240;51.064;16.612;2023-04-24T13:29:37;14.80;99.90
26599;DHT22;14240;51.064;16.612;2023-04-24T13:32:03;14.80;99.90
26599;DHT22;14240;51.064;16.612;2023-04-24T13:34:29;14.90;99.90
26599;DHT22;14240;51.064;16.612;2023-04-24T13:36:56;14.90;99.90
26599;DHT22;14240;51.064;16.612;2023-04-24T13:39:23;14.90;99.90
26599;DHT22;14240;51.064;16.612;2023-04-24T13:41:49;14.90;99.90
26599;DHT22;14240;51.064;16.612;2023-04-24T13:44:18;14.90;99.90
26599;DHT22;14240;51.064;16.612;2023-04-24T13:46:46;14.90;99.90
26599;DHT22;14240;51.064;16.612;2023-04-24T13:49:13;15.00;99.90
26599;DHT22;14240;51.064;16.612;2023-04-24T13:51:39;14.90;99.90
26599;DHT22;14240;51.064;16.612;2023-04-24T13:54:05;14.90;99.90
26599;DHT22;14240;51.064;16.612;2023-04-24T13:56:31;14.90;99.90
26599;DHT22;14240;51.064;16.612;2023-04-24T13:58:57;14.90;99.90
26599;DHT22;14240;51.064;16.612;2023-04-24T14:01:23;14.90;99.90
26599;DHT22;14240;51.064;16.612;2023-04-24T14:03:52;14.90;99.90
26599;DHT22;14240;51.064;16.612;2023-04-24T14:06:19;15.00;99.90
26599;DHT22;14240;51.064;16.612;2023-04-24T14:08:45;14.90;99.90
26599;DHT22;14240;51.064;16.612;2023-04-24T14:11:11;14.90;99.90
26599;DHT22;14240;51.064;16.612;2023-04-24T14:13:41;14.80;99.90
26599;DHT22;14240;51.064;16.612;2023-04-24T14:16:07;14.80;99.90
26599;DHT22;14240;51.064;16.612;2023-04-24T14:18:33;14.80;99.90
26599;DHT22;14240;51.064;16.612;2023-04-24T14:20:59;14.70;99.90
26599;DHT22;14240;51.064;16.612;2023-04-24T14:23:27;14.60;99.90
26599;DHT22;14240;51.064;16.612;2023-04-24T14:25:52;14.60;99.90
26599;DHT22;14240;51.064;16.612;2023-04-24T14:28:19;14.60;99.90
26599;DHT22;14240;51.064;16.612;2023-04-24T14:30:46;14.50;99.90
26599;DHT22;14240;51.064;16.612;2023-04-24T14:33:12;14.50;99.90
26599;DHT22;14240;51.064;16.612;2023-04-24T14:35:39;14.40;99.90
26599;DHT22;14240;51.064;16.612;2023-04-24T14:38:05;14.40;99.90
26599;DHT22;14240;51.064;16.612;2023-04-24T14:40:31;14.40;99.90
26599;DHT22;14240;51.064;16.612;2023-04-24T14:42:58;14.40;99.90
26599;DHT22;14240;51.064;16.612;2023-04-24T14:45:26;15.40;99.90
26599;DHT22;14240;51.064;16.612;2023-04-24T14:47:53;14.40;99.90
26599;DHT22;14240;51.064;16.612;2023-04-24T14:50:19;14.50;99.90
26599;DHT22;14240;51.064;16.612;2023-04-24T14:52:45;14.50;99.90
26599;DHT22;14240;51.064;16.612;2023-04-24T14:55:11;14.50;99.90
26599;DHT22;14240;51.064;16.612;2023-04-24T14:57:37;14.50;99.90
26599;DHT22;14240;51.064;16.612;2023-04-24T15:00:04;14.50;99.90
26599;DHT22;14240;51.064;16.612;2023-04-24T15:02:33;14.60;99.90
26599;DHT22;14240;51.064;16.612;2023-04-24T15:04:58;14.60;99.90
26599;DHT22;14240;51.064;16.612;2023-04-24T15:07:24;14.60;99.90
26599;DHT22;14240;51.064;16.612;2023-04-24T15:09:50;14.60;99.90
26599;DHT22;14240;51.064;16.612;2023-04-24T15:12:17;14.60;99.90
26599;DHT22;14240;51.064;16.612;2023-04-24T15:14:42;14.70;99.90
26599;DHT22;14240;51.064;16.612;2023-04-24T15:17:08;14.70;99.90
26599;DHT22;14240;51.064;16.612;2023-04-24T15:19:34;14.70;99.90
26599;DHT22;14240;51.064;16.612;2023-04-24T15:22:00;14.70;99.90